Terminal Aerodrome Forecast
Issued by NWS

Home | Current Version | Previous Version | Text Only | Print | Product List | Glossary On
Versions: 1 2 3 4 5 6 7 8 9 10 11 12 13 14
000
FTUS42 TJSJ 201120
TAFJSJ
TAF
TJSJ 201120Z 2012/2112 VRB05KT P6SM VCSH SCT025 BKN090
     FM201300 05009KT P6SM FEW025 SCT030 SCT120
     FM201700 03006KT P6SM VCTS SCT035 BKN050CB
     FM202300 VRB02KT P6SM VCSH FEW030 SCT060 SCT100=

USA.gov is the U.S. government's official web portal to all federal, state and local government web resources and services.